Time;durP1;ratioP1;P1;durP2;ratioP2;P2;SDS_P1;SDS_P2;PMS_P1;PMS_P2;Temp;Humidity;BMP_temperature;BMP_pressure;BME280_temperature;BME280_humidity;BME280_pressure;Samples;Min_cycle;Max_cycle;Signal;HPM_P1;HPM_P2
2023/03/26 00:02:22;;;;;;;;;0.00;0.00;;;;;8.02;80.13;99019.31;5117478;28;8824;-58
2023/03/26 00:04:52;;;;;;;;;0.75;0.00;;;;;8.03;79.71;99012.19;5117408;28;9720;-60
2023/03/26 00:07:19;;;;;;;;;0.00;0.00;;;;;8.07;79.83;99003.00;5116170;28;8844;-59
2023/03/26 00:09:47;;;;;;;;;0.00;0.00;;;;;8.09;79.84;99011.69;5116085;28;8866;-58
2023/03/26 00:12:15;;;;;;;;;0.75;0.00;;;;;8.12;79.88;99014.91;5117404;28;8848;-60
2023/03/26 00:14:43;;;;;;;;;2.00;2.00;;;;;8.15;79.93;99011.97;5117426;28;9505;-59
2023/03/26 00:17:11;;;;;;;;;3.25;3.25;;;;;8.17;79.50;99015.38;5116960;28;9625;-58
2023/03/26 00:19:39;;;;;;;;;0.00;0.00;;;;;8.19;79.38;99018.75;5116919;28;8885;-60
2023/03/26 00:22:07;;;;;;;;;0.00;0.00;;;;;8.21;79.47;99016.81;5117086;28;8836;-61
2023/03/26 00:24:36;;;;;;;;;0.00;0.00;;;;;8.23;79.84;99017.53;5117220;28;8832;-60
2023/03/26 00:27:04;;;;;;;;;1.00;1.00;;;;;8.24;80.00;99021.88;5117135;28;8865;-61
2023/03/26 00:29:34;;;;;;;;;0.75;0.75;;;;;8.24;79.96;99015.72;5117237;28;8815;-60
2023/03/26 00:32:02;;;;;;;;;0.75;0.75;;;;;8.26;80.08;99008.47;5117172;28;8915;-59
2023/03/26 00:34:33;;;;;;;;;1.50;1.50;;;;;8.27;80.12;99013.66;5116854;28;8816;-60
2023/03/26 00:37:01;;;;;;;;;0.75;0.75;;;;;8.29;79.85;99009.03;5116999;28;8840;-60
2023/03/26 00:39:34;;;;;;;;;0.75;0.75;;;;;8.31;80.17;99000.97;5116844;28;9540;-61
2023/03/26 00:42:05;;;;;;;;;3.00;1.00;;;;;8.34;80.19;98993.59;5116854;28;8816;-60
2023/03/26 00:44:34;;;;;;;;;1.00;1.00;;;;;8.35;79.78;99000.56;5117230;28;8839;-61
2023/03/26 00:47:02;;;;;;;;;2.50;2.50;;;;;8.37;80.07;99001.25;5117073;28;8851;-60
2023/03/26 00:49:30;;;;;;;;;1.00;1.00;;;;;8.39;79.90;98994.03;5117209;28;8860;-60
2023/03/26 00:51:58;;;;;;;;;1.00;0.67;;;;;8.42;79.87;99001.72;5116618;28;8858;-60
2023/03/26 00:54:27;;;;;;;;;1.00;1.00;;;;;8.44;79.79;99002.44;5116466;28;8820;-61
2023/03/26 00:56:55;;;;;;;;;1.25;0.25;;;;;8.46;79.86;98997.84;5116593;28;9687;-60
2023/03/26 00:59:23;;;;;;;;;1.50;1.50;;;;;8.46;79.87;98989.88;5116719;28;8819;-61
2023/03/26 01:01:53;;;;;;;;;2.50;1.00;;;;;8.45;79.99;98988.19;5115972;28;8828;-61
2023/03/26 01:04:22;;;;;;;;;3.00;1.00;;;;;8.45;80.01;98982.88;5116377;28;8844;-60
2023/03/26 01:06:51;;;;;;;;;1.00;1.00;;;;;8.47;79.88;98977.44;5116283;28;8839;-60
2023/03/26 01:09:18;;;;;;;;;0.75;0.75;;;;;8.50;80.26;98978.03;5115799;28;8838;-61
2023/03/26 01:11:46;;;;;;;;;1.00;1.00;;;;;8.52;79.93;98960.16;5115813;28;8823;-61
2023/03/26 01:14:14;;;;;;;;;1.00;1.00;;;;;8.55;79.99;98967.88;5115950;28;8824;-61
2023/03/26 01:16:43;;;;;;;;;2.00;1.00;;;;;8.58;79.61;98970.22;5116283;28;8881;-61
2023/03/26 01:19:11;;;;;;;;;2.00;1.25;;;;;8.61;79.86;98961.19;5116035;28;8843;-60
2023/03/26 01:21:39;;;;;;;;;2.50;1.50;;;;;8.63;79.63;98964.53;5116519;28;8824;-61
2023/03/26 01:24:07;;;;;;;;;1.00;1.00;;;;;8.62;79.24;98966.34;5116051;28;8977;-61
2023/03/26 01:26:35;;;;;;;;;2.00;1.00;;;;;8.61;80.26;98948.75;5115725;28;8828;-58
2023/03/26 01:29:03;;;;;;;;;3.00;1.00;;;;;8.61;79.70;98951.41;5116077;28;8813;-61
2023/03/26 01:31:35;;;;;;;;;2.00;2.00;;;;;8.61;79.78;98953.22;5116479;28;8835;-61
2023/03/26 01:34:03;;;;;;;;;0.00;0.00;;;;;8.60;79.81;98944.41;5116608;28;8850;-62
2023/03/26 01:36:32;;;;;;;;;3.00;1.50;;;;;8.60;79.99;98949.72;5116364;28;8824;-62
2023/03/26 01:39:00;;;;;;;;;1.00;1.00;;;;;8.61;79.59;98954.06;5116122;28;8916;-62
2023/03/26 01:41:27;;;;;;;;;4.00;3.00;;;;;8.61;79.89;98946.09;5115919;28;8852;-60
2023/03/26 01:43:55;;;;;;;;;1.00;1.00;;;;;8.62;79.99;98946.94;5116606;28;8820;-61
2023/03/26 01:46:24;;;;;;;;;3.75;3.00;;;;;8.63;80.34;98953.91;5115570;28;8859;-61
2023/03/26 01:48:52;;;;;;;;;2.00;1.00;;;;;8.63;79.99;98936.19;5116001;28;8852;-61
2023/03/26 01:51:20;;;;;;;;;0.00;0.00;;;;;8.64;79.50;98945.81;5115533;28;8864;-61
2023/03/26 01:53:47;;;;;;;;;3.00;1.00;;;;;8.65;79.96;98942.19;5115679;28;8854;-61
2023/03/26 01:56:15;;;;;;;;;1.00;0.75;;;;;8.68;79.62;98935.78;5115656;28;8840;-60
2023/03/26 01:58:43;;;;;;;;;4.00;4.00;;;;;8.68;79.60;98936.59;5115603;28;8924;-61
2023/03/26 02:01:12;;;;;;;;;3.00;3.00;;;;;8.69;79.56;98935.66;5115985;28;8860;-61
2023/03/26 02:03:40;;;;;;;;;1.50;1.50;;;;;8.71;79.83;98935.50;5115773;28;8917;-61
2023/03/26 02:06:08;;;;;;;;;2.00;2.00;;;;;8.72;79.61;98927.41;5115963;28;8958;-61
2023/03/26 02:08:36;;;;;;;;;1.00;1.00;;;;;8.73;79.41;98923.78;5116344;28;8836;-62
2023/03/26 02:11:04;;;;;;;;;1.25;1.25;;;;;8.74;79.63;98922.81;5116289;28;8906;-62
2023/03/26 02:13:32;;;;;;;;;1.00;1.00;;;;;8.75;79.41;98924.47;5116564;28;8841;-59
2023/03/26 02:16:00;;;;;;;;;1.00;0.00;;;;;8.75;79.58;98919.16;5116300;28;8839;-61
2023/03/26 02:18:34;;;;;;;;;4.00;2.00;;;;;8.75;79.93;98913.84;5115816;28;8840;-62
2023/03/26 02:21:02;;;;;;;;;1.00;1.00;;;;;8.76;79.54;98912.91;5115777;28;8818;-62
2023/03/26 02:23:34;;;;;;;;;1.00;1.00;;;;;8.77;79.75;98908.44;5119694;28;8822;-62
2023/03/26 02:26:02;;;;;;;;;0.50;0.50;;;;;8.77;79.43;98903.97;5120110;28;8840;-61
2023/03/26 02:28:30;;;;;;;;;1.00;0.50;;;;;8.77;79.26;98903.13;5119626;28;8906;-61
2023/03/26 02:31:00;;;;;;;;;1.00;1.00;;;;;8.75;79.49;98895.28;5119473;28;8814;-61
2023/03/26 02:33:28;;;;;;;;;3.00;3.00;;;;;8.74;79.39;98892.78;5119115;28;8817;-59
2023/03/26 02:35:58;;;;;;;;;0.00;0.00;;;;;8.73;79.71;98891.13;5119552;28;8825;-60
2023/03/26 02:38:26;;;;;;;;;2.50;1.50;;;;;8.72;79.58;98889.41;5119464;28;8939;-61
2023/03/26 02:40:54;;;;;;;;;0.50;0.50;;;;;8.72;79.49;98884.09;5119637;28;9475;-61
2023/03/26 02:43:22;;;;;;;;;2.00;0.75;;;;;8.72;79.63;98884.09;5119934;28;8838;-62
2023/03/26 02:45:50;;;;;;;;;1.00;1.00;;;;;8.70;79.37;98880.75;5119308;28;8829;-61
2023/03/26 02:48:17;;;;;;;;;1.00;1.00;;;;;8.69;79.21;98879.06;5119115;28;8891;-62
2023/03/26 02:50:48;;;;;;;;;3.25;2.50;;;;;8.67;80.01;98881.84;5119142;28;8810;-62
2023/03/26 02:53:16;;;;;;;;;6.00;4.00;;;;;8.66;79.94;98874.88;5118540;28;8848;-61
2023/03/26 02:55:44;;;;;;;;;1.00;1.00;;;;;8.64;79.80;98876.84;5119361;28;8841;-62
2023/03/26 02:58:16;;;;;;;;;1.50;1.50;;;;;8.62;79.88;98876.13;5118972;28;8825;-61
2023/03/26 03:00:43;;;;;;;;;4.00;3.00;;;;;8.60;79.95;98871.94;5117620;28;8910;-62
2023/03/26 03:03:11;;;;;;;;;1.00;1.00;;;;;8.60;80.09;98871.94;5118544;28;8966;-60
2023/03/26 03:05:41;;;;;;;;;3.50;1.00;;;;;8.61;80.17;98871.81;5118531;28;8895;-62
2023/03/26 03:08:09;;;;;;;;;3.00;1.00;;;;;8.63;79.85;98869.84;5118071;28;8930;-62
2023/03/26 03:10:38;;;;;;;;;1.00;0.25;;;;;8.66;79.74;98872.22;5118480;28;8805;-62
2023/03/26 03:13:06;;;;;;;;;1.00;1.00;;;;;8.69;79.58;98864.00;5118451;28;8806;-62
2023/03/26 03:15:34;;;;;;;;;1.00;1.00;;;;;8.73;79.77;98865.41;5118753;28;8817;-61
2023/03/26 03:18:02;;;;;;;;;3.75;0.50;;;;;8.73;79.47;98854.78;5119237;28;9541;-61
2023/03/26 03:20:30;;;;;;;;;0.50;0.50;;;;;8.77;79.58;98860.66;5119106;28;8915;-62
2023/03/26 03:22:58;;;;;;;;;1.00;1.00;;;;;8.78;79.40;98859.66;5118737;28;8817;-62
2023/03/26 03:25:25;;;;;;;;;0.50;0.50;;;;;8.80;79.38;98849.78;5118384;28;8820;-62
2023/03/26 03:27:53;;;;;;;;;1.00;0.00;;;;;8.79;79.75;98840.13;5118432;28;8836;-62
2023/03/26 03:30:21;;;;;;;;;3.25;0.50;;;;;8.76;80.05;98832.44;5118277;28;8821;-62
2023/03/26 03:32:49;;;;;;;;;0.00;0.00;;;;;8.69;79.99;98832.16;5118283;28;8862;-61
2023/03/26 03:35:16;;;;;;;;;0.50;0.50;;;;;8.64;80.05;98833.53;5118627;28;8825;-61
2023/03/26 03:37:44;;;;;;;;;2.00;2.00;;;;;8.57;79.52;98819.13;5117416;28;8846;-60
2023/03/26 03:40:12;;;;;;;;;1.00;1.00;;;;;8.51;80.31;98825.00;5118245;28;8817;-62
2023/03/26 03:42:40;;;;;;;;;2.00;0.50;;;;;8.44;80.38;98816.72;5118920;28;9626;-60
2023/03/26 03:45:08;;;;;;;;;1.00;1.00;;;;;8.38;80.12;98816.44;5118136;28;8822;-59
2023/03/26 03:47:35;;;;;;;;;0.50;0.00;;;;;8.30;80.65;98809.16;5117915;28;8952;-60
2023/03/26 03:50:03;;;;;;;;;1.00;1.00;;;;;8.21;80.64;98809.97;5117607;28;8845;-58
2023/03/26 03:52:31;;;;;;;;;0.50;0.25;;;;;8.14;80.82;98806.16;5117823;28;8829;-59
2023/03/26 03:54:59;;;;;;;;;0.25;0.25;;;;;8.06;80.82;98803.34;5117646;28;8841;-61
2023/03/26 03:57:27;;;;;;;;;0.50;0.00;;;;;8.01;81.51;98813.53;5117544;28;8829;-60
2023/03/26 03:59:57;;;;;;;;;2.00;2.00;;;;;7.95;81.30;98814.06;5117319;28;8832;-61
2023/03/26 04:02:29;;;;;;;;;2.00;2.00;;;;;7.90;81.17;98805.66;5117056;28;8802;-61
2023/03/26 04:04:57;;;;;;;;;2.50;2.00;;;;;7.85;81.41;98799.06;5117628;28;9608;-61
2023/03/26 04:07:25;;;;;;;;;1.00;1.00;;;;;7.79;81.26;98799.59;5118072;28;8825;-59
2023/03/26 04:09:53;;;;;;;;;0.00;0.00;;;;;7.76;81.48;98799.88;5118019;28;8832;-62
2023/03/26 04:12:20;;;;;;;;;1.00;1.00;;;;;7.73;81.44;98785.09;5117887;28;8814;-61
2023/03/26 04:14:48;;;;;;;;;0.25;0.00;;;;;7.70;81.39;98795.94;5117987;28;8906;-59
2023/03/26 04:17:16;;;;;;;;;1.00;0.00;;;;;7.68;81.49;98793.56;5117667;28;8833;-61
2023/03/26 04:19:44;;;;;;;;;0.25;0.25;;;;;7.68;81.45;98788.25;5117817;28;8841;-61
2023/03/26 04:22:12;;;;;;;;;0.00;0.00;;;;;7.68;81.47;98777.66;5117955;28;9502;-59
2023/03/26 04:24:40;;;;;;;;;3.00;1.50;;;;;7.66;81.92;98782.25;5117801;28;9657;-58
2023/03/26 04:27:08;;;;;;;;;3.00;2.00;;;;;7.65;81.39;98777.94;5117316;28;8855;-61
2023/03/26 04:29:37;;;;;;;;;1.00;1.00;;;;;7.66;81.50;98767.19;5117871;28;8939;-61
2023/03/26 04:32:07;;;;;;;;;1.00;0.75;;;;;7.72;81.51;98768.50;5117592;28;8828;-61
2023/03/26 04:34:35;;;;;;;;;5.50;3.75;;;;;7.80;81.20;98772.13;5117433;28;8829;-61
2023/03/26 04:37:02;;;;;;;;;0.75;0.25;;;;;7.89;81.21;98771.31;5117269;28;8841;-61
2023/03/26 04:39:32;;;;;;;;;3.25;2.50;;;;;7.97;80.64;98761.75;5117429;28;8822;-61
2023/03/26 04:42:00;;;;;;;;;2.50;1.00;;;;;8.07;80.68;98753.81;5117582;28;9506;-59
2023/03/26 04:44:29;;;;;;;;;1.50;1.00;;;;;8.15;80.80;98749.50;5117102;28;8828;-59
2023/03/26 04:46:56;;;;;;;;;0.25;0.25;;;;;8.20;80.40;98752.63;5115623;28;8860;-61
2023/03/26 04:49:24;;;;;;;;;5.00;3.75;;;;;8.24;80.60;98742.56;5116610;28;8817;-62
2023/03/26 04:51:52;;;;;;;;;0.00;0.00;;;;;8.27;80.52;98735.19;5116506;28;8802;-59
2023/03/26 04:54:20;;;;;;;;;1.00;0.75;;;;;8.29;80.37;98743.84;5116670;28;9565;-62
2023/03/26 04:56:48;;;;;;;;;0.00;0.00;;;;;8.32;80.16;98732.97;5116444;28;8813;-61
2023/03/26 04:59:15;;;;;;;;;0.50;0.50;;;;;8.35;80.42;98735.34;5116631;28;9564;-61
2023/03/26 05:01:44;;;;;;;;;2.25;2.25;;;;;8.35;80.35;98731.88;5116844;28;9535;-61
2023/03/26 05:04:12;;;;;;;;;0.00;0.00;;;;;8.36;80.30;98731.69;5116701;28;8822;-61
2023/03/26 05:06:41;;;;;;;;;0.50;0.50;;;;;8.37;80.41;98724.59;5116903;28;9657;-61
2023/03/26 05:09:09;;;;;;;;;0.25;0.25;;;;;8.37;80.12;98716.66;5116750;28;8884;-59
2023/03/26 05:11:37;;;;;;;;;2.25;0.75;;;;;8.35;80.05;98723.91;5116782;28;8835;-60
2023/03/26 05:14:04;;;;;;;;;1.00;0.25;;;;;8.33;80.46;98724.03;5116453;28;8915;-60
2023/03/26 05:16:33;;;;;;;;;0.00;0.00;;;;;8.33;80.37;98716.09;5115489;28;9783;-61
2023/03/26 05:19:01;;;;;;;;;0.25;0.25;;;;;8.34;80.12;98716.91;5116412;28;8825;-59
2023/03/26 05:21:29;;;;;;;;;1.00;1.00;;;;;8.33;80.27;98700.16;5116394;28;8832;-62
2023/03/26 05:23:56;;;;;;;;;1.00;0.00;;;;;8.33;80.08;98702.81;5116486;28;8806;-59
2023/03/26 05:26:24;;;;;;;;;1.00;1.00;;;;;8.34;80.09;98693.03;5116701;28;8813;-62
2023/03/26 05:28:52;;;;;;;;;0.00;0.00;;;;;8.34;80.31;98699.19;5116016;28;8902;-60
2023/03/26 05:31:21;;;;;;;;;0.75;0.50;;;;;8.35;80.33;98687.59;5116799;28;8813;-61
2023/03/26 05:33:48;;;;;;;;;1.00;1.00;;;;;8.34;80.09;98683.28;5116557;28;8813;-62
2023/03/26 05:36:16;;;;;;;;;0.00;0.00;;;;;8.35;80.08;98681.47;5116276;28;8806;-62
2023/03/26 05:38:46;;;;;;;;;2.50;2.50;;;;;8.36;80.17;98675.19;5116531;28;8932;-61
2023/03/26 05:41:14;;;;;;;;;0.25;0.25;;;;;8.36;79.96;98677.84;5116414;28;8833;-62
2023/03/26 05:43:42;;;;;;;;;0.75;0.75;;;;;8.37;79.98;98675.03;5116473;28;8821;-59
2023/03/26 05:46:10;;;;;;;;;2.50;2.50;;;;;8.38;80.25;98674.03;5115935;28;8825;-60
2023/03/26 05:48:38;;;;;;;;;0.00;0.00;;;;;8.39;79.50;98669.59;5116350;28;8848;-59
2023/03/26 05:51:06;;;;;;;;;0.25;0.25;;;;;8.39;80.43;98665.13;5115781;28;8841;-61
2023/03/26 05:53:34;;;;;;;;;1.00;1.00;;;;;8.41;79.96;98664.97;5116092;28;8940;-61
2023/03/26 05:56:03;;;;;;;;;0.50;0.50;;;;;8.41;80.08;98660.53;5116601;28;8813;-61
2023/03/26 05:58:30;;;;;;;;;1.00;1.00;;;;;8.44;80.14;98657.56;5119952;28;8826;-60
2023/03/26 06:00:58;;;;;;;;;1.00;1.00;;;;;8.45;80.09;98656.59;5120218;28;8829;-60
2023/03/26 06:03:26;;;;;;;;;1.00;1.00;;;;;8.47;79.70;98648.50;5120045;28;8845;-60
2023/03/26 06:05:54;;;;;;;;;0.00;0.00;;;;;8.49;79.86;98647.41;5119841;28;8875;-59
2023/03/26 06:08:22;;;;;;;;;1.75;1.50;;;;;8.52;79.69;98643.63;5120177;28;9601;-58
2023/03/26 06:10:50;;;;;;;;;0.25;0.00;;;;;8.54;79.75;98646.97;5119586;28;8839;-59
2023/03/26 06:13:18;;;;;;;;;1.50;1.00;;;;;8.55;79.43;98640.69;5120078;28;8910;-59
2023/03/26 06:15:45;;;;;;;;;1.00;1.00;;;;;8.56;79.78;98637.91;5120045;28;8846;-59
2023/03/26 06:18:13;;;;;;;;;1.00;1.00;;;;;8.58;79.50;98633.28;5119352;28;8821;-59
2023/03/26 06:20:42;;;;;;;;;1.00;0.00;;;;;8.59;79.39;98634.13;5119838;28;8888;-61
2023/03/26 06:23:10;;;;;;;;;0.00;0.00;;;;;8.60;79.72;98633.97;5119590;28;8821;-59
2023/03/26 06:25:37;;;;;;;;;2.00;1.50;;;;;8.62;79.49;98628.53;5119034;28;8832;-61
2023/03/26 06:28:05;;;;;;;;;1.00;1.00;;;;;8.64;79.72;98629.22;5119194;28;8829;-59
2023/03/26 06:30:33;;;;;;;;;1.00;1.00;;;;;8.66;79.55;98624.63;5119785;28;8845;-59
2023/03/26 06:33:01;;;;;;;;;0.00;0.00;;;;;8.68;79.44;98617.34;5118884;28;8915;-59
2023/03/26 06:35:29;;;;;;;;;0.50;0.50;;;;;8.70;79.62;98618.03;5118891;28;8945;-60
2023/03/26 06:37:56;;;;;;;;;0.00;0.00;;;;;8.71;79.08;98612.59;5118766;28;8841;-60
2023/03/26 06:40:24;;;;;;;;;2.00;2.00;;;;;8.73;79.29;98613.28;5118544;28;8844;-61
2023/03/26 06:42:52;;;;;;;;;4.00;3.00;;;;;8.72;79.37;98614.25;5118549;28;8845;-62
2023/03/26 06:45:36;;;;;;;;;1.50;1.00;;;;;8.73;79.41;98620.41;5118679;28;8829;-59
2023/03/26 06:48:04;;;;;;;;;0.00;0.00;;;;;8.71;79.48;98612.59;5118437;28;8943;-62
2023/03/26 06:50:32;;;;;;;;;0.00;0.00;;;;;8.69;79.38;98616.38;5119369;28;8846;-61
2023/03/26 06:53:00;;;;;;;;;0.00;0.00;;;;;8.68;79.26;98612.03;5118748;28;8840;-61
2023/03/26 06:55:27;;;;;;;;;0.50;0.00;;;;;8.68;79.32;98612.84;5118506;28;8832;-61
2023/03/26 06:57:57;;;;;;;;;0.00;0.00;;;;;8.68;79.52;98607.56;5117714;28;8848;-61
2023/03/26 07:00:24;;;;;;;;;0.00;0.00;;;;;8.69;79.40;98614.56;5118300;28;8810;-61
2023/03/26 07:02:52;;;;;;;;;2.00;1.00;;;;;8.70;79.58;98612.72;5118601;28;8846;-60
2023/03/26 07:05:20;;;;;;;;;0.00;0.00;;;;;8.71;79.84;98609.94;5117197;28;8814;-61
2023/03/26 07:07:49;;;;;;;;;1.00;1.00;;;;;8.73;79.54;98615.13;5118124;28;8809;-60
2023/03/26 07:10:17;;;;;;;;;1.50;1.50;;;;;8.73;79.38;98615.94;5118178;28;8852;-60
2023/03/26 07:12:44;;;;;;;;;1.00;1.00;;;;;8.73;79.44;98612.47;5117847;28;8967;-62
2023/03/26 07:15:12;;;;;;;;;0.00;0.00;;;;;8.69;79.63;98609.25;5118357;28;8817;-62
2023/03/26 07:17:40;;;;;;;;;0.25;0.25;;;;;8.65;79.47;98610.50;5117981;28;8837;-62
2023/03/26 07:20:08;;;;;;;;;1.00;1.00;;;;;8.63;79.82;98604.50;5118361;28;9555;-61
2023/03/26 07:22:36;;;;;;;;;0.00;0.00;;;;;8.60;79.47;98604.78;5118445;28;8835;-60
2023/03/26 07:25:03;;;;;;;;;0.00;0.00;;;;;8.60;79.72;98603.97;5118056;28;8943;-62
2023/03/26 07:27:31;;;;;;;;;0.50;0.00;;;;;8.59;79.83;98602.28;5118112;28;8926;-62
2023/03/26 07:29:59;;;;;;;;;1.50;0.25;;;;;8.58;80.10;98593.47;5117861;28;8805;-61
2023/03/26 07:32:27;;;;;;;;;0.00;0.00;;;;;8.59;79.97;98589.84;5118404;28;8829;-61
2023/03/26 07:34:54;;;;;;;;;0.25;0.00;;;;;8.62;79.89;98596.69;5118327;28;8845;-62
2023/03/26 07:37:22;;;;;;;;;0.75;0.00;;;;;8.63;80.08;98596.56;5117227;28;9549;-60
2023/03/26 07:39:50;;;;;;;;;0.50;0.00;;;;;8.67;79.68;98592.63;5117823;28;8825;-59
2023/03/26 07:42:18;;;;;;;;;2.00;2.00;;;;;8.71;80.28;98587.84;5117983;28;8833;-61
2023/03/26 07:44:46;;;;;;;;;1.00;0.25;;;;;8.75;79.81;98582.13;5117805;28;8864;-61
2023/03/26 07:47:14;;;;;;;;;1.00;1.00;;;;;8.78;79.69;98581.84;5117228;28;8825;-60
2023/03/26 07:49:42;;;;;;;;;0.75;0.00;;;;;8.83;79.73;98578.75;5117399;28;8977;-62
2023/03/26 07:52:09;;;;;;;;;0.25;0.25;;;;;8.87;79.62;98578.31;5117207;28;8825;-62
2023/03/26 07:54:37;;;;;;;;;1.00;1.00;;;;;8.90;79.29;98572.72;5116707;28;8852;-60
2023/03/26 07:57:05;;;;;;;;;1.00;1.00;;;;;8.96;79.39;98574.78;5116881;28;8845;-60
2023/03/26 07:59:33;;;;;;;;;0.00;0.00;;;;;9.00;79.12;98567.38;5116659;28;8883;-61
2023/03/26 08:02:01;;;;;;;;;0.50;0.50;;;;;9.04;78.95;98561.63;5116351;28;8829;-61
2023/03/26 08:04:28;;;;;;;;;1.00;0.25;;;;;9.06;79.36;98557.03;5116833;28;8847;-60
2023/03/26 08:06:58;;;;;;;;;1.00;1.00;;;;;9.09;78.89;98559.38;5117166;28;8829;-61
2023/03/26 08:09:26;;;;;;;;;1.00;1.00;;;;;9.13;79.09;98555.41;5117072;28;8931;-59
2023/03/26 08:11:54;;;;;;;;;0.00;0.00;;;;;9.14;78.73;98545.66;5116564;28;8915;-61
2023/03/26 08:14:22;;;;;;;;;1.00;1.00;;;;;9.16;79.06;98549.00;5116956;28;8839;-62
2023/03/26 08:16:49;;;;;;;;;0.50;0.50;;;;;9.18;78.93;98545.22;5116265;28;8847;-60
2023/03/26 08:19:17;;;;;;;;;0.00;0.00;;;;;9.20;78.91;98542.41;5115933;28;8858;-60
2023/03/26 08:21:46;;;;;;;;;2.00;0.00;;;;;9.23;78.89;98542.97;5116113;28;8825;-60
2023/03/26 08:24:15;;;;;;;;;2.50;0.00;;;;;9.24;79.09;98535.81;5116578;28;8868;-60
2023/03/26 08:26:42;;;;;;;;;4.50;2.50;;;;;9.26;79.48;98534.69;5116670;28;8837;-61
2023/03/26 08:29:11;;;;;;;;;0.50;0.50;;;;;9.27;78.91;98536.34;5116626;28;8806;-59
2023/03/26 08:31:38;;;;;;;;;1.00;1.00;;;;;9.30;78.73;98546.69;5116718;28;8964;-59
2023/03/26 08:34:07;;;;;;;;;1.00;1.00;;;;;9.31;78.94;98529.78;5117109;28;8824;-60
2023/03/26 08:36:34;;;;;;;;;0.25;0.25;;;;;9.35;78.91;98538.28;5116859;28;8838;-60
2023/03/26 08:39:03;;;;;;;;;2.00;1.00;;;;;9.36;78.81;98531.97;5116775;28;8850;-61
2023/03/26 08:41:30;;;;;;;;;1.00;1.00;;;;;9.38;79.21;98527.34;5115952;28;8934;-59
2023/03/26 08:43:58;;;;;;;;;0.00;0.00;;;;;9.40;78.94;98528.88;5116778;28;8844;-60
2023/03/26 08:46:27;;;;;;;;;2.50;2.00;;;;;9.43;78.92;98525.91;5116618;28;8833;-61
2023/03/26 08:48:54;;;;;;;;;0.00;0.00;;;;;9.46;78.81;98520.31;5115972;28;8942;-61
2023/03/26 08:51:22;;;;;;;;;0.00;0.00;;;;;9.48;78.80;98513.00;5115525;28;8851;-60
2023/03/26 08:53:50;;;;;;;;;0.00;0.00;;;;;9.51;78.75;98515.38;5115872;28;8861;-60
2023/03/26 08:56:18;;;;;;;;;0.50;0.50;;;;;9.57;79.23;98513.94;5115199;28;8825;-61
2023/03/26 08:58:46;;;;;;;;;0.00;0.00;;;;;9.60;78.58;98516.28;5115492;28;9603;-60
2023/03/26 09:01:14;;;;;;;;;1.00;0.50;;;;;9.61;78.52;98512.63;5114896;28;8860;-61
2023/03/26 09:03:42;;;;;;;;;0.50;0.50;;;;;9.63;78.84;98513.34;5115245;28;8828;-60
2023/03/26 09:06:10;;;;;;;;;0.00;0.00;;;;;9.63;78.82;98514.16;5115561;28;8837;-61
2023/03/26 09:08:37;;;;;;;;;3.00;0.50;;;;;9.65;78.43;98514.03;5115459;28;8864;-59
2023/03/26 09:11:21;;;;;;;;;0.50;0.50;;;;;9.65;78.67;98509.53;5115249;28;9479;-61
2023/03/26 09:13:48;;;;;;;;;1.00;1.00;;;;;9.65;78.98;98504.22;5115062;28;8851;-60
2023/03/26 09:16:16;;;;;;;;;0.00;0.00;;;;;9.67;79.09;98512.03;5115286;28;8821;-62
2023/03/26 09:18:44;;;;;;;;;2.50;1.50;;;;;9.66;79.29;98513.84;5114948;28;8829;-61
2023/03/26 09:21:12;;;;;;;;;2.00;1.00;;;;;9.67;78.62;98506.72;5115679;28;8841;-59
2023/03/26 09:23:40;;;;;;;;;3.25;1.50;;;;;9.66;79.18;98505.88;5115070;28;8837;-60
2023/03/26 09:26:07;;;;;;;;;1.00;1.00;;;;;9.69;79.11;98508.25;5116077;28;9538;-60
2023/03/26 09:28:35;;;;;;;;;3.00;3.00;;;;;9.71;79.19;98503.59;5115957;28;8833;-61
2023/03/26 09:31:03;;;;;;;;;3.00;3.00;;;;;9.74;79.00;98503.31;5114838;28;8826;-60
2023/03/26 09:33:32;;;;;;;;;3.00;3.00;;;;;9.76;79.08;98505.81;5114050;28;8825;-61
2023/03/26 09:36:00;;;;;;;;;3.00;3.00;;;;;9.77;78.64;98503.00;5113000;28;8852;-61
2023/03/26 09:38:27;;;;;;;;;4.00;3.50;;;;;9.79;79.02;98497.53;5113121;28;8845;-61
2023/03/26 09:40:55;;;;;;;;;12.75;9.00;;;;;9.80;78.88;98502.69;5113323;28;8825;-62
2023/03/26 09:43:24;;;;;;;;;6.75;4.00;;;;;9.81;78.96;98498.22;5113935;28;8875;-59
2023/03/26 09:45:52;;;;;;;;;11.00;11.00;;;;;9.82;79.17;98490.09;5113547;28;8853;-60
2023/03/26 09:48:20;;;;;;;;;6.25;6.00;;;;;9.81;79.31;98488.41;5113176;28;8838;-60
2023/03/26 09:50:48;;;;;;;;;6.50;4.50;;;;;9.82;78.92;98495.41;5114135;28;9486;-61
2023/03/26 09:53:16;;;;;;;;;7.25;7.25;;;;;9.82;79.31;98494.56;5114302;28;8956;-62
2023/03/26 09:55:45;;;;;;;;;3.50;2.00;;;;;9.80;79.13;98489.41;5115388;28;9596;-61
2023/03/26 09:58:13;;;;;;;;;1.00;0.00;;;;;9.80;78.99;98485.91;5115028;28;9574;-61
2023/03/26 10:00:41;;;;;;;;;10.00;7.00;;;;;9.78;79.47;98483.41;5114843;28;8861;-60
2023/03/26 10:03:09;;;;;;;;;13.00;12.50;;;;;9.78;79.29;98494.03;5114897;28;8934;-61
2023/03/26 10:05:40;;;;;;;;;6.25;6.25;;;;;9.79;79.65;98484.25;5115542;28;8833;-60
2023/03/26 10:08:08;;;;;;;;;14.75;12.75;;;;;9.78;79.33;98483.41;5115090;28;8809;-60
2023/03/26 10:10:36;;;;;;;;;2.50;1.00;;;;;9.78;79.39;98479.94;5114470;28;8810;-62
2023/03/26 10:13:04;;;;;;;;;3.75;3.00;;;;;9.79;79.61;98484.25;5114540;28;9151;-62
2023/03/26 10:15:41;;;;;;;;;1.00;1.00;;;;;9.79;79.65;98482.41;5114646;28;8825;-60
2023/03/26 10:18:09;;;;;;;;;18.75;16.50;;;;;9.80;79.17;98481.41;5112503;28;8929;-61
2023/03/26 10:20:55;;;;;;;;;15.75;15.00;;;;;9.80;79.43;98478.75;5113290;28;8825;-62
2023/03/26 10:23:23;;;;;;;;;3.75;3.00;;;;;9.80;79.44;98478.75;5113239;28;8846;-62
2023/03/26 10:25:51;;;;;;;;;3.25;3.00;;;;;9.81;79.53;98477.78;5114290;28;8849;-61
2023/03/26 10:28:19;;;;;;;;;4.00;4.00;;;;;9.82;79.25;98470.66;5114679;28;8825;-60
2023/03/26 10:30:47;;;;;;;;;3.75;3.00;;;;;9.84;79.51;98473.97;5114231;28;8817;-59
2023/03/26 10:33:15;;;;;;;;;5.00;3.75;;;;;9.85;79.18;98473.84;5114386;28;8833;-61
2023/03/26 10:35:43;;;;;;;;;3.50;3.50;;;;;9.83;79.31;98465.19;5114677;28;8923;-61
2023/03/26 10:38:11;;;;;;;;;4.00;3.50;;;;;9.84;79.88;98468.66;5114780;28;9510;-62
2023/03/26 10:40:41;;;;;;;;;6.50;6.50;;;;;9.84;79.44;98466.00;5114712;28;8806;-61
2023/03/26 10:43:10;;;;;;;;;5.00;5.00;;;;;9.86;79.71;98470.19;5116810;28;8825;-60
2023/03/26 10:45:39;;;;;;;;;6.50;4.50;;;;;9.87;79.52;98469.19;5118682;28;9556;-62
2023/03/26 10:48:07;;;;;;;;;3.25;3.25;;;;;9.89;79.63;98463.72;5118436;28;8963;-61
2023/03/26 10:50:35;;;;;;;;;3.75;3.75;;;;;9.88;79.63;98465.53;5118523;28;8841;-61
2023/03/26 10:53:02;;;;;;;;;0.75;0.75;;;;;9.87;79.61;98453.22;5118921;28;9495;-62
2023/03/26 10:55:31;;;;;;;;;1.50;1.50;;;;;9.86;79.70;98462.22;5118090;28;8813;-62
2023/03/26 10:57:59;;;;;;;;;1.00;1.00;;;;;9.85;79.67;98457.88;5117714;28;8825;-60
2023/03/26 11:00:27;;;;;;;;;3.50;3.50;;;;;9.86;79.63;98453.41;5117724;28;8821;-60
2023/03/26 11:02:55;;;;;;;;;3.00;3.00;;;;;9.87;79.40;98460.41;5117935;28;8907;-61
2023/03/26 11:05:23;;;;;;;;;4.00;4.00;;;;;9.86;79.88;98459.53;5117992;28;8821;-59
2023/03/26 11:07:52;;;;;;;;;3.00;3.00;;;;;9.83;79.78;98459.03;5117364;28;8821;-62
2023/03/26 11:10:20;;;;;;;;;4.00;4.00;;;;;9.76;80.14;98453.50;5118050;28;9054;-62
2023/03/26 11:12:48;;;;;;;;;2.00;2.00;;;;;9.70;80.28;98447.94;5117967;28;9492;-62
2023/03/26 11:15:16;;;;;;;;;2.00;2.00;;;;;9.61;80.28;98460.34;5117908;28;8829;-61
2023/03/26 11:17:44;;;;;;;;;1.00;0.00;;;;;9.53;80.27;98462.91;5115988;28;9210;-61
2023/03/26 11:20:13;;;;;;;;;2.50;2.50;;;;;9.48;81.06;98457.22;5117074;28;8853;-62
2023/03/26 11:22:40;;;;;;;;;0.00;0.00;;;;;9.41;80.85;98458.00;5117814;28;8922;-62
2023/03/26 11:25:08;;;;;;;;;0.00;0.00;;;;;9.31;80.67;98450.06;5116959;28;8940;-62
2023/03/26 11:27:36;;;;;;;;;0.00;0.00;;;;;9.21;80.86;98454.63;5118244;28;8855;-62
2023/03/26 11:30:04;;;;;;;;;0.75;0.75;;;;;9.12;81.33;98457.34;5117058;28;8979;-60
2023/03/26 11:32:33;;;;;;;;;0.00;0.00;;;;;9.07;81.19;98451.63;5117633;28;8845;-60
2023/03/26 11:35:01;;;;;;;;;0.00;0.00;;;;;9.06;81.28;98450.81;5118355;28;8880;-61
2023/03/26 11:37:29;;;;;;;;;0.00;0.00;;;;;9.08;80.79;98448.84;5116820;28;8829;-62
2023/03/26 11:39:57;;;;;;;;;1.00;1.00;;;;;9.13;81.09;98454.53;5117201;28;8817;-60
2023/03/26 11:42:25;;;;;;;;;0.00;0.00;;;;;9.18;80.95;98448.78;5116195;28;8825;-62
2023/03/26 11:44:54;;;;;;;;;0.00;0.00;;;;;9.25;81.02;98449.81;5117751;28;8829;-62
2023/03/26 11:47:22;;;;;;;;;0.00;0.00;;;;;9.30;80.92;98448.41;5116511;28;8825;-61
2023/03/26 11:49:50;;;;;;;;;0.00;0.00;;;;;9.37;80.53;98441.50;5116424;28;8858;-61
2023/03/26 11:52:18;;;;;;;;;2.50;1.00;;;;;9.46;80.02;98445.06;5116597;28;8844;-62
2023/03/26 11:54:47;;;;;;;;;0.00;0.00;;;;;9.54;79.99;98440.66;5116816;28;8941;-60